F/V Fleur Des Vagues — FPEJ — position and weather

sailwx.info

Track history (hours):
 
Tides and Currents Weather Stations Pressure Air Temp Water Temp Dewpoint Dewpoint Depression Visibility Wind Speed Wind Dir Waves Ship Positions

F/V Fleur Des Vagues

Last reported at 2018-May-03 14:32 UTC. Time now 2018-May-22 19:48 UTC.
Position N 46°09' W 001°13'.
Warning: this ship's position is 19 days out of date.

Length 16 m.

Type: Fishing. MMSI: 227893000.

Date/timePositionNaut miles runAvg speedWind from/ knotsBaromVisibWave heightAir tempDewpointWater temp
2018-May-03 14:32N 46°09' W 001°13'0 0.0
2018-May-03 14:29N 46°09' W 001°13'0 0.0
2018-May-03 13:59N 46°09' W 001°13'0 0.0
2018-May-03 13:29N 46°09' W 001°13'0 0.9
2018-May-03 13:00N 46°09' W 001°14'3 6.1
2018-May-03 12:30N 46°06' W 001°16'4 8.1
2018-May-03 12:00N 46°07' W 001°22'4 7.9
2018-May-03 11:30N 46°08' W 001°27'7 7.5
2018-May-03 10:32N 46°12' W 001°36'1 8.1
2018-May-03 10:27N 46°13' W 001°37'4 8.2
2018-May-03 10:00N 46°16' W 001°40'4 8.4
2018-May-03 09:30N 46°19' W 001°44'4 8.3
2018-May-03 09:00N 46°22' W 001°48'4 8.6
2018-May-03 08:30N 46°25' W 001°52'4 8.7
2018-May-03 08:00N 46°29' W 001°56'4 8.8
2018-May-03 07:30N 46°32' W 001°60'4 9.0
2018-May-03 07:00N 46°36' W 002°04'7 9.0
2018-May-03 06:17N 46°41' W 002°10'46 8.9
2018-May-03 01:04N 47°15' W 002°57'1 8.5
2018-May-03 00:59N 47°15' W 002°57'4 8.3
2018-May-03 00:30N 47°18' W 003°01'4 8.2
2018-May-03 00:00N 47°22' W 003°04'4 8.5
2018-May-02 23:30N 47°25' W 003°08'4 7.8
2018-May-02 23:00N 47°28' W 003°11'4 7.8
2018-May-02 22:30N 47°32' W 003°14'4 8.3
2018-May-02 22:00N 47°35' W 003°17'4 8.5
2018-May-02 21:30N 47°39' W 003°20'4 8.3
2018-May-02 21:00N 47°43' W 003°22'1 1.9
2018-May-02 20:29N 47°44' W 003°22'  
2018-Apr-30 08:19N 47°44' W 003°22'0 0.0
2018-Apr-30 07:58N 47°44' W 003°22'  
2018-Apr-26 08:20N 47°44' W 003°22'0 0.0
2018-Apr-26 07:59N 47°44' W 003°22'0 0.0
2018-Apr-26 07:29N 47°44' W 003°22'  
Track history (hours):
 
Tides and Currents Weather Stations Pressure Air Temp Water Temp Dewpoint Dewpoint Depression Visibility Wind Speed Wind Dir Waves Ship Positions

F/V Fleur Des Vagues

Last reported at 2018-May-03 14:32 UTC. Time now 2018-May-22 19:48 UTC.
Position N 46°09' W 001°13'.
Warning: this ship's position is 19 days out of date.

Length 16 m.

Type: Fishing. MMSI: 227893000.

Date/timePositionNaut miles runAvg speedWind from/ knotsBaromVisibWave heightAir tempDewpointWater temp
2018-May-03 14:32N 46°09' W 001°13'0 0.0
2018-May-03 14:29N 46°09' W 001°13'0 0.0
2018-May-03 13:59N 46°09' W 001°13'0 0.0
2018-May-03 13:29N 46°09' W 001°13'0 0.9
2018-May-03 13:00N 46°09' W 001°14'3 6.1
2018-May-03 12:30N 46°06' W 001°16'4 8.1
2018-May-03 12:00N 46°07' W 001°22'4 7.9
2018-May-03 11:30N 46°08' W 001°27'7 7.5
2018-May-03 10:32N 46°12' W 001°36'1 8.1
2018-May-03 10:27N 46°13' W 001°37'4 8.2
2018-May-03 10:00N 46°16' W 001°40'4 8.4
2018-May-03 09:30N 46°19' W 001°44'4 8.3
2018-May-03 09:00N 46°22' W 001°48'4 8.6
2018-May-03 08:30N 46°25' W 001°52'4 8.7
2018-May-03 08:00N 46°29' W 001°56'4 8.8
2018-May-03 07:30N 46°32' W 001°60'4 9.0
2018-May-03 07:00N 46°36' W 002°04'7 9.0
2018-May-03 06:17N 46°41' W 002°10'46 8.9
2018-May-03 01:04N 47°15' W 002°57'1 8.5
2018-May-03 00:59N 47°15' W 002°57'4 8.3
2018-May-03 00:30N 47°18' W 003°01'4 8.2
2018-May-03 00:00N 47°22' W 003°04'4 8.5
2018-May-02 23:30N 47°25' W 003°08'4 7.8
2018-May-02 23:00N 47°28' W 003°11'4 7.8
2018-May-02 22:30N 47°32' W 003°14'4 8.3
2018-May-02 22:00N 47°35' W 003°17'4 8.5
2018-May-02 21:30N 47°39' W 003°20'4 8.3
2018-May-02 21:00N 47°43' W 003°22'1 1.9
2018-May-02 20:29N 47°44' W 003°22'  
2018-Apr-30 08:19N 47°44' W 003°22'0 0.0
2018-Apr-30 07:58N 47°44' W 003°22'  
2018-Apr-26 08:20N 47°44' W 003°22'0 0.0
2018-Apr-26 07:59N 47°44' W 003°22'0 0.0
2018-Apr-26 07:29N 47°44' W 003°22'  

Dump ship's entire track history